bureau de piste

METAR LFMD 252000Z AUTO VRB01KT CAVOK 19/15 Q1016 NOSIG

TAF LFMD 251400Z 2515/2615 16010KT 9999 FEW026 BECMG 2518/2520 36008KT PROB30 TEMPO 2600/2607 BKN012 BECMG 2607/2609 14006KT BECMG 2609/2610 BKN250

INFORMATION ADDS - 2019 UTC 25 May 2018

Plus d’information sur les terrains : LFMD et VALBERG

Les commentaires sont clos.